createdAt,value
2023-05-05T00:00:41.050Z,97806.00
2023-05-05T00:03:28.204Z,97808.00
2023-05-05T00:06:15.220Z,97810.69
2023-05-05T00:09:04.004Z,97798.72
2023-05-05T00:11:50.843Z,97790.34
2023-05-05T00:14:37.739Z,97786.00
2023-05-05T00:17:24.645Z,97796.19
2023-05-05T00:20:12.155Z,97796.72
2023-05-05T00:22:59.088Z,97790.19
2023-05-05T00:25:46.024Z,97790.56
2023-05-05T00:28:32.887Z,97784.34
2023-05-05T00:31:20.086Z,97779.25
2023-05-05T00:34:07.064Z,97779.09
2023-05-05T00:36:53.999Z,97785.06
2023-05-05T00:39:40.956Z,97782.34
2023-05-05T00:42:27.881Z,97777.44
2023-05-05T00:45:15.628Z,97790.00
2023-05-05T00:48:02.857Z,97788.00
2023-05-05T00:50:49.833Z,97785.09
2023-05-05T00:53:39.094Z,97791.09
2023-05-05T00:56:27.385Z,97778.72
2023-05-05T00:59:14.464Z,97787.78
2023-05-05T01:02:01.401Z,97786.72
2023-05-05T01:04:48.740Z,97778.88
2023-05-05T01:07:56.971Z,97779.78
2023-05-05T01:10:43.761Z,97787.06
2023-05-05T01:13:48.969Z,97786.50
2023-05-05T01:16:38.962Z,97779.97
2023-05-05T01:19:35.062Z,97777.41
2023-05-05T01:22:27.166Z,97783.41
2023-05-05T01:25:45.935Z,97780.34
2023-05-05T01:29:02.272Z,97773.63
2023-05-05T01:32:01.037Z,97780.16
2023-05-05T01:35:15.389Z,97777.22
2023-05-05T01:38:11.923Z,97773.56
2023-05-05T01:41:10.968Z,97777.59
2023-05-05T01:44:01.468Z,97779.81
2023-05-05T01:46:50.361Z,97784.31
2023-05-05T01:49:38.265Z,97781.03
2023-05-05T01:52:27.684Z,97775.72
2023-05-05T01:55:17.538Z,97783.69
2023-05-05T01:58:07.407Z,97782.94
2023-05-05T02:00:56.742Z,97785.13
2023-05-05T02:03:47.073Z,97784.41
2023-05-05T02:06:35.661Z,97783.69
2023-05-05T02:09:25.032Z,97782.41
2023-05-05T02:12:12.548Z,97780.47
2023-05-05T02:15:01.361Z,97782.63
2023-05-05T02:17:51.939Z,97784.41
2023-05-05T02:20:40.419Z,97781.31
2023-05-05T02:23:27.480Z,97790.03
2023-05-05T02:26:16.760Z,97792.53
2023-05-05T02:29:18.964Z,97791.63
2023-05-05T02:32:17.049Z,97791.06
2023-05-05T02:35:21.405Z,97789.97
2023-05-05T02:38:17.275Z,97785.63
2023-05-05T02:41:05.957Z,97791.91
2023-05-05T02:43:56.186Z,97782.31
2023-05-05T02:46:43.265Z,97790.66
2023-05-05T02:49:30.496Z,97782.34
2023-05-05T02:52:17.580Z,97788.16
2023-05-05T02:55:06.497Z,97786.53
2023-05-05T02:58:07.778Z,97780.56
2023-05-05T03:01:40.234Z,97780.88
2023-05-05T03:04:48.712Z,97778.66
2023-05-05T03:07:42.226Z,97787.34
2023-05-05T03:10:34.621Z,97793.00
2023-05-05T03:13:25.704Z,97795.38
2023-05-05T03:16:15.437Z,97790.50
2023-05-05T03:19:05.318Z,97794.63
2023-05-05T03:21:52.528Z,97793.31
2023-05-05T03:24:43.936Z,97801.22
2023-05-05T03:27:31.481Z,97800.84
2023-05-05T03:30:20.674Z,97803.94
2023-05-05T03:33:08.828Z,97812.47
2023-05-05T03:35:56.055Z,97808.88
2023-05-05T03:38:42.880Z,97808.28
2023-05-05T03:41:29.856Z,97812.66
2023-05-05T03:44:16.758Z,97817.72
2023-05-05T03:47:03.613Z,97815.38
2023-05-05T03:49:51.174Z,97810.31
2023-05-05T03:52:38.094Z,97822.31
2023-05-05T03:55:24.984Z,97820.72
2023-05-05T03:58:12.330Z,97826.34
2023-05-05T04:00:59.388Z,97833.06
2023-05-05T04:03:46.396Z,97833.78
2023-05-05T04:06:33.314Z,97834.34
2023-05-05T04:09:20.152Z,97830.56
2023-05-05T04:12:07.631Z,97830.94
2023-05-05T04:14:54.500Z,97838.22
2023-05-05T04:17:41.388Z,97838.59
2023-05-05T04:20:29.605Z,97842.25
2023-05-05T04:23:16.430Z,97851.72
2023-05-05T04:26:03.318Z,97841.03
2023-05-05T04:28:50.413Z,97853.53
2023-05-05T04:31:37.317Z,97852.44
2023-05-05T04:34:24.230Z,97855.31
2023-05-05T04:37:11.417Z,97855.81
2023-05-05T04:39:58.302Z,97859.88
2023-05-05T04:42:45.576Z,97863.72
2023-05-05T04:45:32.433Z,97869.38
2023-05-05T04:48:20.920Z,97875.56
2023-05-05T04:51:08.055Z,97881.03
2023-05-05T04:53:55.895Z,97874.88
2023-05-05T04:56:42.850Z,97885.59
2023-05-05T04:59:29.815Z,97884.00
2023-05-05T05:02:16.718Z,97888.25
2023-05-05T05:05:04.117Z,97887.19
2023-05-05T05:07:51.031Z,97887.75
2023-05-05T05:10:37.924Z,97893.38
2023-05-05T05:13:25.106Z,97889.44
2023-05-05T05:16:12.105Z,97889.97
2023-05-05T05:19:00.927Z,97883.09
2023-05-05T05:21:48.608Z,97889.28
2023-05-05T05:24:36.332Z,97891.50
2023-05-05T05:27:23.165Z,97884.03
2023-05-05T05:30:10.513Z,97889.84
2023-05-05T05:32:57.527Z,97892.22
2023-05-05T05:35:44.374Z,97894.06
2023-05-05T05:38:31.258Z,97894.41
2023-05-05T05:41:18.153Z,97888.59
2023-05-05T05:44:05.306Z,97896.03
2023-05-05T05:46:52.159Z,97888.94
2023-05-05T05:49:39.126Z,97907.47
2023-05-05T05:52:25.963Z,97899.09
2023-05-05T05:55:12.857Z,97894.50
2023-05-05T05:58:00.181Z,97904.91
2023-05-05T06:00:48.590Z,97901.06
2023-05-05T06:03:35.571Z,97907.59
2023-05-05T06:06:22.509Z,97895.00
2023-05-05T06:09:09.330Z,97900.06
2023-05-05T06:11:56.172Z,97907.47
2023-05-05T06:14:43.036Z,97901.25
2023-05-05T06:17:29.872Z,97902.13
2023-05-05T06:20:16.832Z,97907.56
2023-05-05T06:23:03.703Z,97902.44
2023-05-05T06:25:50.847Z,97900.97
2023-05-05T06:28:37.799Z,97902.91
2023-05-05T06:31:24.826Z,97906.03
2023-05-05T06:34:12.213Z,97902.84
2023-05-05T06:36:59.061Z,97904.28
2023-05-05T06:39:46.026Z,97899.97
2023-05-05T06:42:33.122Z,97895.50
2023-05-05T06:45:20.060Z,97898.56
2023-05-05T06:48:06.933Z,97902.72
2023-05-05T06:50:53.860Z,97900.44
2023-05-05T06:53:40.765Z,97901.13
2023-05-05T06:56:27.957Z,97898.88
2023-05-05T06:59:15.498Z,97900.81
2023-05-05T07:02:02.396Z,97902.38
2023-05-05T07:04:49.369Z,97901.03
2023-05-05T07:07:36.716Z,97891.59
2023-05-05T07:10:24.664Z,97891.03
2023-05-05T07:13:11.512Z,97886.59
2023-05-05T07:15:58.506Z,97880.38
2023-05-05T07:18:45.350Z,97884.63
2023-05-05T07:21:35.520Z,97882.34
2023-05-05T07:24:23.915Z,97883.88
2023-05-05T07:27:10.977Z,97877.72
2023-05-05T07:29:57.981Z,97876.59
2023-05-05T07:32:44.948Z,97877.50
2023-05-05T07:35:31.930Z,97878.03
2023-05-05T07:38:18.749Z,97874.47
2023-05-05T07:41:05.630Z,97870.84
2023-05-05T07:43:52.554Z,97867.25
2023-05-05T07:46:39.685Z,97860.81
2023-05-05T07:49:26.875Z,97861.28
2023-05-05T07:52:13.839Z,97862.75
2023-05-05T07:55:00.792Z,97864.66
2023-05-05T07:57:48.287Z,97873.34
2023-05-05T08:00:35.619Z,97865.09
2023-05-05T08:03:24.926Z,97863.09
2023-05-05T08:06:15.903Z,97864.25
2023-05-05T08:09:03.468Z,97864.97
2023-05-05T08:11:50.396Z,97864.25
2023-05-05T08:14:37.303Z,97864.53
2023-05-05T08:17:26.229Z,97855.84
2023-05-05T08:20:13.722Z,97857.00
2023-05-05T08:23:00.725Z,97854.38
2023-05-05T08:25:47.674Z,97849.84
2023-05-05T08:28:36.385Z,97844.72
2023-05-05T08:31:23.315Z,97849.66
2023-05-05T08:34:10.192Z,97853.56
2023-05-05T08:36:57.052Z,97846.72
2023-05-05T08:39:43.890Z,97848.84
2023-05-05T08:42:38.400Z,97853.06
2023-05-05T08:45:27.573Z,97846.63
2023-05-05T08:48:17.823Z,97843.25
2023-05-05T08:51:06.660Z,97847.09
2023-05-05T08:54:00.969Z,97852.72
2023-05-05T08:56:51.377Z,97849.88
2023-05-05T08:59:38.567Z,97854.13
2023-05-05T09:02:29.822Z,97846.53
2023-05-05T09:05:17.233Z,97847.13
2023-05-05T09:08:09.970Z,97844.38
2023-05-05T09:10:56.832Z,97851.38
2023-05-05T09:13:43.974Z,97841.06
2023-05-05T09:16:30.876Z,97838.94
2023-05-05T09:19:17.764Z,97832.25
2023-05-05T09:22:04.631Z,97826.03
2023-05-05T09:24:55.236Z,97831.84
2023-05-05T09:27:45.888Z,97828.34
2023-05-05T09:30:33.428Z,97818.75
2023-05-05T09:33:30.863Z,97818.16
2023-05-05T09:36:17.711Z,97816.75
2023-05-05T09:39:07.436Z,97820.13
2023-05-05T09:41:54.366Z,97818.94
2023-05-05T09:44:41.285Z,97818.56
2023-05-05T09:47:36.163Z,97817.25
2023-05-05T09:50:23.623Z,97818.81
2023-05-05T09:53:11.787Z,97816.69
2023-05-05T09:56:01.614Z,97810.59
2023-05-05T09:58:48.658Z,97822.13
2023-05-05T10:01:35.845Z,97815.63
2023-05-05T10:04:30.202Z,97806.59
2023-05-05T10:07:27.448Z,97807.69
2023-05-05T10:10:16.563Z,97808.88
2023-05-05T10:13:04.004Z,97814.75
2023-05-05T10:15:57.197Z,97807.91
2023-05-05T10:18:46.612Z,97814.25
2023-05-05T10:21:40.919Z,97805.56
2023-05-05T10:24:39.476Z,97809.06
2023-05-05T10:27:29.191Z,97802.56
2023-05-05T10:30:32.556Z,97794.59
2023-05-05T10:36:16.703Z,97790.81
2023-05-05T10:39:06.686Z,97787.91
2023-05-05T10:41:53.706Z,97784.19
2023-05-05T10:44:41.279Z,97783.91
2023-05-05T10:47:28.899Z,97776.88
2023-05-05T10:50:33.985Z,97777.16
2023-05-05T10:53:28.303Z,97767.28
2023-05-05T10:56:21.967Z,97759.16
2023-05-05T10:59:38.853Z,97755.00
2023-05-05T11:02:28.093Z,97749.91
2023-05-05T11:05:20.443Z,97752.50
2023-05-05T11:08:25.625Z,97755.31
2023-05-05T11:11:13.270Z,97751.59
2023-05-05T11:14:19.953Z,97744.22
2023-05-05T11:17:47.847Z,97733.84
2023-05-05T11:20:40.356Z,97737.06
2023-05-05T11:23:28.107Z,97734.88
2023-05-05T11:26:16.202Z,97722.59
2023-05-05T11:29:04.821Z,97718.25
2023-05-05T11:32:17.830Z,97712.19
2023-05-05T11:35:06.182Z,97711.47
2023-05-05T11:38:04.695Z,97706.50
2023-05-05T11:40:58.461Z,97705.34
2023-05-05T11:43:45.906Z,97701.34
2023-05-05T11:46:32.797Z,97703.16
2023-05-05T11:49:28.726Z,97697.91
2023-05-05T11:52:15.684Z,97694.63
2023-05-05T11:55:03.667Z,97698.41
2023-05-05T11:57:51.208Z,97694.28
2023-05-05T12:00:38.197Z,97690.59
2023-05-05T12:03:25.503Z,97688.66
2023-05-05T12:06:13.189Z,97684.53
2023-05-05T12:09:00.942Z,97680.69
2023-05-05T12:11:54.685Z,97686.59
2023-05-05T12:14:51.640Z,97676.16
2023-05-05T12:17:44.935Z,97675.53
2023-05-05T12:20:33.699Z,97673.84
2023-05-05T12:23:21.264Z,97672.59
2023-05-05T12:26:08.448Z,97674.13
2023-05-05T12:28:59.695Z,97669.63
2023-05-05T12:31:46.706Z,97666.25
2023-05-05T12:34:33.891Z,97669.44
2023-05-05T12:37:22.247Z,97661.84
2023-05-05T12:40:47.512Z,97654.97
2023-05-05T12:43:35.304Z,97655.13
2023-05-05T12:46:22.864Z,97652.78
2023-05-05T12:49:10.018Z,97657.00
2023-05-05T12:51:57.310Z,97650.47
2023-05-05T12:54:59.849Z,97645.00
2023-05-05T12:58:04.545Z,97636.84
2023-05-05T13:01:11.025Z,97627.97
2023-05-05T13:04:05.550Z,97627.50
2023-05-05T13:07:15.839Z,97622.53
2023-05-05T13:10:12.358Z,97619.19
2023-05-05T13:12:59.393Z,97619.03
2023-05-05T13:15:46.310Z,97613.66
2023-05-05T13:18:46.823Z,97607.22
2023-05-05T13:21:33.720Z,97611.22
2023-05-05T13:24:28.556Z,97611.22
2023-05-05T13:27:25.323Z,97595.41
2023-05-05T13:30:12.675Z,97584.63
2023-05-05T13:32:59.607Z,97580.50
2023-05-05T13:35:46.552Z,97575.97
2023-05-05T13:38:33.474Z,97570.25
2023-05-05T13:41:20.377Z,97567.53
2023-05-05T13:44:07.238Z,97564.75
2023-05-05T13:46:54.183Z,97557.94
2023-05-05T13:49:41.308Z,97559.34
2023-05-05T13:52:29.832Z,97547.94
2023-05-05T13:55:18.127Z,97546.97
2023-05-05T13:58:05.339Z,97540.72
2023-05-05T14:00:52.414Z,97543.94
2023-05-05T14:03:39.757Z,97534.03
2023-05-05T14:06:27.708Z,97529.16
2023-05-05T14:09:14.682Z,97519.41
2023-05-05T14:12:01.644Z,97519.03
2023-05-05T14:14:49.405Z,97517.66
2023-05-05T14:17:36.350Z,97517.19
2023-05-05T14:20:23.355Z,97516.63
2023-05-05T14:23:10.199Z,97519.56
2023-05-05T14:25:57.704Z,97509.66
2023-05-05T14:28:46.740Z,97505.50
2023-05-05T14:31:36.675Z,97505.56
2023-05-05T14:34:23.629Z,97503.06
2023-05-05T14:37:10.615Z,97505.41
2023-05-05T14:39:58.186Z,97493.03
2023-05-05T14:42:45.183Z,97496.38
2023-05-05T14:45:32.208Z,97501.31
2023-05-05T14:48:22.113Z,97501.88
2023-05-05T14:51:09.039Z,97495.75
2023-05-05T14:53:55.967Z,97493.63
2023-05-05T14:56:42.845Z,97492.75
2023-05-05T14:59:29.951Z,97493.72
2023-05-05T15:02:16.763Z,97489.22
2023-05-05T15:05:03.799Z,97488.25
2023-05-05T15:07:50.737Z,97487.25
2023-05-05T15:10:37.650Z,97491.94
2023-05-05T15:13:24.554Z,97494.41
2023-05-05T15:16:12.225Z,97495.41
2023-05-05T15:18:59.130Z,97485.09
2023-05-05T15:21:53.010Z,97491.38
2023-05-05T15:24:39.898Z,97487.88
2023-05-05T15:27:26.909Z,97490.81
2023-05-05T15:30:14.346Z,97482.56
2023-05-05T15:33:01.349Z,97487.88
2023-05-05T15:35:48.257Z,97479.16
2023-05-05T15:38:41.786Z,97478.06
2023-05-05T15:41:29.409Z,97485.13
2023-05-05T15:44:16.348Z,97473.88
2023-05-05T15:47:03.250Z,97472.44
2023-05-05T15:49:50.123Z,97468.16
2023-05-05T15:52:36.924Z,97477.34
2023-05-05T15:55:24.200Z,97470.88
2023-05-05T15:58:11.190Z,97468.34
2023-05-05T16:00:58.221Z,97463.25
2023-05-05T16:03:47.867Z,97465.72
2023-05-05T16:06:34.763Z,97473.78
2023-05-05T16:09:21.720Z,97464.59
2023-05-05T16:12:08.633Z,97469.97
2023-05-05T16:14:55.753Z,97465.31
2023-05-05T16:17:42.665Z,97457.34
2023-05-05T16:20:29.762Z,97459.09
2023-05-05T16:23:16.756Z,97457.47
2023-05-05T16:26:04.176Z,97454.00
2023-05-05T16:28:51.298Z,97447.63
2023-05-05T16:31:38.489Z,97455.34
2023-05-05T16:34:25.423Z,97449.78
2023-05-05T16:37:12.783Z,97446.31
2023-05-05T16:40:01.344Z,97442.66
2023-05-05T16:42:48.176Z,97445.88
2023-05-05T16:45:35.169Z,97448.00
2023-05-05T16:48:21.993Z,97444.03
2023-05-05T16:51:09.008Z,97435.91
2023-05-05T16:53:56.209Z,97435.16
2023-05-05T16:56:43.068Z,97438.94
2023-05-05T16:59:31.611Z,97434.47
2023-05-05T17:02:18.668Z,97435.00
2023-05-05T17:05:06.342Z,97430.06
2023-05-05T17:07:53.282Z,97436.34
2023-05-05T17:10:44.482Z,97432.41
2023-05-05T17:13:31.419Z,97430.25
2023-05-05T17:16:18.317Z,97430.06
2023-05-05T17:19:05.258Z,97429.00
2023-05-05T17:21:52.107Z,97430.91
2023-05-05T17:24:39.020Z,97427.84
2023-05-05T17:27:25.871Z,97432.75
2023-05-05T17:30:13.231Z,97437.69
2023-05-05T17:33:00.154Z,97428.72
2023-05-05T17:35:47.869Z,97436.22
2023-05-05T17:38:34.802Z,97431.84
2023-05-05T17:41:22.046Z,97425.31
2023-05-05T17:44:08.838Z,97431.41
2023-05-05T17:46:55.872Z,97435.03
2023-05-05T17:49:42.708Z,97433.31
2023-05-05T17:52:29.625Z,97432.28
2023-05-05T17:55:16.577Z,97433.28
2023-05-05T17:58:03.534Z,97429.66
2023-05-05T18:00:50.974Z,97429.78
2023-05-05T18:03:40.560Z,97428.66
2023-05-05T18:06:29.318Z,97428.47
2023-05-05T18:09:16.788Z,97427.44
2023-05-05T18:12:03.886Z,97426.94
2023-05-05T18:14:50.957Z,97436.91
2023-05-05T18:17:37.937Z,97435.56
2023-05-05T18:20:24.857Z,97429.63
2023-05-05T18:23:11.705Z,97431.25
2023-05-05T18:25:58.603Z,97432.28
2023-05-05T18:28:45.523Z,97429.31
2023-05-05T18:31:32.564Z,97433.59
2023-05-05T18:34:20.512Z,97428.44
2023-05-05T18:37:07.574Z,97432.97
2023-05-05T18:39:54.450Z,97431.28
2023-05-05T18:42:41.797Z,97432.28
2023-05-05T18:45:28.772Z,97428.81
2023-05-05T18:48:16.488Z,97427.69
2023-05-05T18:51:04.469Z,97425.72
2023-05-05T18:53:51.388Z,97425.50
2023-05-05T18:56:38.286Z,97424.97
2023-05-05T18:59:25.255Z,97422.13
2023-05-05T19:02:12.173Z,97418.03
2023-05-05T19:04:59.079Z,97414.19
2023-05-05T19:07:46.163Z,97404.88
2023-05-05T19:10:33.430Z,97408.13
2023-05-05T19:13:20.729Z,97411.28
2023-05-05T19:16:08.291Z,97400.72
2023-05-05T19:19:05.153Z,97399.50
2023-05-05T19:21:56.125Z,97393.16
2023-05-05T19:24:43.035Z,97397.84
2023-05-05T19:27:45.267Z,97389.34
2023-05-05T19:30:33.558Z,97382.63
2023-05-05T19:33:21.081Z,97390.34
2023-05-05T19:36:19.211Z,97378.59
2023-05-05T19:39:06.564Z,97376.53
2023-05-05T19:41:53.792Z,97378.50
2023-05-05T19:44:40.663Z,97371.53
2023-05-05T19:47:27.617Z,97385.72
2023-05-05T19:50:16.077Z,97387.75
2023-05-05T19:53:03.687Z,97386.69
2023-05-05T19:55:50.690Z,97391.66
2023-05-05T19:59:00.841Z,97386.50
2023-05-05T20:01:49.364Z,97394.56
2023-05-05T20:04:36.219Z,97396.50
2023-05-05T20:07:23.262Z,97387.81
2023-05-05T20:10:10.622Z,97392.38
2023-05-05T20:12:57.880Z,97381.94
2023-05-05T20:15:44.764Z,97377.41
2023-05-05T20:18:32.285Z,97391.78
2023-05-05T20:21:19.211Z,97399.84
2023-05-05T20:24:07.362Z,97388.00
2023-05-05T20:26:54.267Z,97396.13
2023-05-05T20:29:41.109Z,97396.38
2023-05-05T20:32:27.934Z,97387.38
2023-05-05T20:35:14.914Z,97391.34
2023-05-05T20:38:03.745Z,97393.03
2023-05-05T20:40:52.088Z,97384.44
2023-05-05T20:43:39.211Z,97386.22
2023-05-05T20:46:26.153Z,97383.94
2023-05-05T20:49:13.024Z,97380.25
2023-05-05T20:52:00.328Z,97378.09
2023-05-05T20:54:47.176Z,97380.03
2023-05-05T20:57:34.248Z,97369.22
2023-05-05T21:00:21.520Z,97374.50
2023-05-05T21:07:26.329Z,97373.19
2023-05-05T21:10:13.212Z,97370.78
2023-05-05T21:13:02.188Z,97367.22
2023-05-05T21:15:49.070Z,97362.06
2023-05-05T21:18:35.992Z,97362.78
2023-05-05T21:21:23.927Z,97366.84
2023-05-05T21:24:12.956Z,97361.34
2023-05-05T21:27:00.002Z,97367.91
2023-05-05T21:29:46.928Z,97366.84
2023-05-05T21:32:33.852Z,97371.16
2023-05-05T21:35:21.098Z,97372.34
2023-05-05T21:38:08.331Z,97377.59
2023-05-05T21:40:58.792Z,97370.53
2023-05-05T21:43:45.691Z,97371.72
2023-05-05T21:46:32.628Z,97365.97
2023-05-05T21:49:19.686Z,97362.97
2023-05-05T21:52:06.631Z,97358.09
2023-05-05T21:54:53.565Z,97361.78
2023-05-05T21:57:40.532Z,97365.41
2023-05-05T22:00:27.447Z,97374.13
2023-05-05T22:03:14.343Z,97376.75
2023-05-05T22:06:01.279Z,97385.25
2023-05-05T22:08:48.871Z,97397.00
2023-05-05T22:11:35.942Z,97450.84
2023-05-05T22:14:22.855Z,97546.84
2023-05-05T22:17:09.876Z,97548.91
2023-05-05T22:19:56.724Z,97550.03
2023-05-05T22:22:43.600Z,97598.34
2023-05-05T22:25:30.512Z,97591.66
2023-05-05T22:28:17.402Z,97621.47
2023-05-05T22:31:04.618Z,97627.50
2023-05-05T22:33:51.504Z,97648.75
2023-05-05T22:36:38.344Z,97655.19
2023-05-05T22:39:25.273Z,97653.28
2023-05-05T22:42:12.119Z,97672.41
2023-05-05T22:44:59.018Z,97674.84
2023-05-05T22:47:45.898Z,97681.75
2023-05-05T22:50:32.838Z,97677.72
2023-05-05T22:53:19.721Z,97690.25
2023-05-05T22:56:06.703Z,97694.78
2023-05-05T22:58:53.738Z,97694.69
2023-05-05T23:01:40.847Z,97684.91
2023-05-05T23:04:27.748Z,97693.56
2023-05-05T23:07:14.671Z,97693.44
2023-05-05T23:10:01.588Z,97679.41
2023-05-05T23:12:48.544Z,97681.47
2023-05-05T23:15:35.640Z,97687.00
2023-05-05T23:18:22.505Z,97683.66
2023-05-05T23:21:10.138Z,97687.84
2023-05-05T23:23:57.037Z,97691.50
2023-05-05T23:26:43.860Z,97686.28
2023-05-05T23:29:31.102Z,97689.59
2023-05-05T23:32:17.972Z,97673.38
2023-05-05T23:35:05.544Z,97670.88
2023-05-05T23:37:52.410Z,97668.00
2023-05-05T23:40:39.250Z,97664.97
2023-05-05T23:43:26.164Z,97664.38
2023-05-05T23:46:13.111Z,97661.31
2023-05-05T23:48:59.990Z,97654.66
2023-05-05T23:51:46.858Z,97656.88
2023-05-05T23:54:33.714Z,97653.41
2023-05-05T23:57:20.761Z,97658.03
